Time,TemperatureF,DewpointF,PressureIn,WindDirection,WindDirectionDegrees,WindSpeedMPH,WindSpeedGustMPH,Humidity,HourlyPrecipIn,Conditions,Clouds,dailyrainin,SoftwareType,DateUTC
2013-09-20 00:03:00,65.0,64.0,-100.00,WSW,250,0.0,4.0,98,-99.99,,,-99.99,,2013-09-20 05:03:00,
2013-09-20 00:23:00,65.0,64.0,-100.00,West,280,1.0,7.0,98,-99.99,,,-99.99,,2013-09-20 05:23:00,
2013-09-20 00:34:00,65.0,64.0,-100.00,West,280,1.0,7.0,98,-99.99,,,-99.99,,2013-09-20 05:34:00,
2013-09-20 00:43:00,65.0,64.0,-100.00,West,280,1.0,7.0,98,-99.99,,,-99.99,,2013-09-20 05:43:00,
2013-09-20 00:53:00,65.0,64.0,-100.00,West,280,1.0,7.0,98,-99.99,,,-99.99,,2013-09-20 05:53:00,
2013-09-20 01:22:00,64.0,64.0,-100.00,NW,325,3.0,7.0,98,-99.99,,,-99.99,,2013-09-20 06:22:00,
2013-09-20 01:33:00,64.0,64.0,-100.00,NW,325,3.0,7.0,98,-99.99,,,-99.99,,2013-09-20 06:33:00,
2013-09-20 01:42:00,64.0,64.0,-100.00,NW,325,3.0,7.0,98,-99.99,,,-99.99,,2013-09-20 06:42:00,
2013-09-20 01:52:00,64.0,64.0,-100.00,NW,325,3.0,7.0,98,-99.99,,,-99.99,,2013-09-20 06:52:00,
2013-09-20 02:02:00,64.0,64.0,-100.00,NW,325,3.0,7.0,98,-99.99,,,-99.99,,2013-09-20 07:02:00,
2013-09-20 02:42:00,65.0,64.0,-100.00,WNW,285,2.0,5.0,98,-99.99,,,-99.99,,2013-09-20 07:42:00,
2013-09-20 02:53:00,65.0,64.0,-100.00,WNW,285,2.0,5.0,98,-99.99,,,-99.99,,2013-09-20 07:53:00,
2013-09-20 03:02:00,65.0,64.0,-100.00,WNW,285,2.0,5.0,98,-99.99,,,-99.99,,2013-09-20 08:02:00,
2013-09-20 03:42:00,65.0,64.0,-100.00,NNW,330,0.0,6.0,98,-99.99,,,-99.99,,2013-09-20 08:42:00,
2013-09-20 03:52:00,65.0,64.0,-100.00,NNW,330,0.0,6.0,98,-99.99,,,-99.99,,2013-09-20 08:52:00,
2013-09-20 04:01:00,65.0,64.0,-100.00,NNW,330,0.0,6.0,98,-99.99,,,-99.99,,2013-09-20 09:01:00,
2013-09-20 04:44:00,64.0,64.0,-100.00,West,270,2.0,7.0,98,-99.99,,,-99.99,,2013-09-20 09:44:00,
2013-09-20 04:53:00,64.0,64.0,-100.00,West,270,2.0,7.0,98,-99.99,,,-99.99,,2013-09-20 09:53:00,
2013-09-20 05:03:00,64.0,64.0,-100.00,West,270,2.0,7.0,98,-99.99,,,-99.99,,2013-09-20 10:03:00,
2013-09-20 05:23:00,64.0,64.0,-100.00,NW,310,2.0,7.0,99,-99.99,,,-99.99,,2013-09-20 10:23:00,
2013-09-20 05:32:00,64.0,64.0,-100.00,NW,310,2.0,7.0,99,-99.99,,,-99.99,,2013-09-20 10:32:00,
2013-09-20 05:42:00,64.0,64.0,-100.00,NW,310,2.0,7.0,99,-99.99,,,-99.99,,2013-09-20 10:42:00,
2013-09-20 05:53:00,64.0,64.0,-100.00,NW,310,2.0,7.0,99,-99.99,,,-99.99,,2013-09-20 10:53:00,
2013-09-20 06:23:00,63.0,63.0,-100.00,NW,310,3.0,7.0,99,-99.99,,,-99.99,,2013-09-20 11:23:00,
2013-09-20 06:33:00,63.0,63.0,-100.00,NW,310,3.0,7.0,99,-99.99,,,-99.99,,2013-09-20 11:33:00,
2013-09-20 06:42:00,63.0,63.0,-100.00,NW,310,3.0,7.0,99,-99.99,,,-99.99,,2013-09-20 11:42:00,
2013-09-20 06:52:00,63.0,63.0,-100.00,NW,310,3.0,7.0,99,-99.99,,,-99.99,,2013-09-20 11:52:00,
2013-09-20 07:02:00,63.0,63.0,-100.00,NW,310,3.0,7.0,99,-99.99,,,-99.99,,2013-09-20 12:02:00,
2013-09-20 07:22:00,61.0,61.0,-100.00,NW,310,6.0,15.0,99,-99.99,,,-99.99,,2013-09-20 12:22:00,
2013-09-20 07:32:00,61.0,61.0,-100.00,NW,310,6.0,15.0,99,-99.99,,,-99.99,,2013-09-20 12:32:00,
2013-09-20 07:43:00,61.0,61.0,-100.00,NW,310,6.0,15.0,99,-99.99,,,-99.99,,2013-09-20 12:43:00,
2013-09-20 07:52:00,61.0,61.0,-100.00,NW,310,6.0,15.0,99,-99.99,,,-99.99,,2013-09-20 12:52:00,
2013-09-20 08:02:00,61.0,61.0,-100.00,NW,310,6.0,15.0,99,-99.99,,,-99.99,,2013-09-20 13:02:00,
2013-09-20 08:22:00,60.0,60.0,-100.00,North,0,6.0,14.0,99,-99.99,,,-99.99,,2013-09-20 13:22:00,
2013-09-20 08:32:00,60.0,60.0,-100.00,North,0,6.0,14.0,99,-99.99,,,-99.99,,2013-09-20 13:32:00,
2013-09-20 08:42:00,60.0,60.0,-100.00,North,0,6.0,14.0,99,-99.99,,,-99.99,,2013-09-20 13:42:00,
2013-09-20 08:52:00,60.0,60.0,-100.00,North,0,6.0,14.0,99,-99.99,,,-99.99,,2013-09-20 13:52:00,
2013-09-20 09:02:00,60.0,60.0,-100.00,North,0,6.0,14.0,99,-99.99,,,-99.99,,2013-09-20 14:02:00,
2013-09-20 09:22:00,61.0,60.0,-100.00,WSW,255,2.0,6.0,99,-99.99,,,-99.99,,2013-09-20 14:22:00,
2013-09-20 09:32:00,61.0,60.0,-100.00,WSW,255,2.0,6.0,99,-99.99,,,-99.99,,2013-09-20 14:32:00,
2013-09-20 09:42:00,61.0,60.0,-100.00,WSW,255,2.0,6.0,99,-99.99,,,-99.99,,2013-09-20 14:42:00,
2013-09-20 09:52:00,61.0,60.0,-100.00,WSW,255,2.0,6.0,99,-99.99,,,-99.99,,2013-09-20 14:52:00,
2013-09-20 10:02:00,61.0,60.0,-100.00,WSW,255,2.0,6.0,99,-99.99,,,-99.99,,2013-09-20 15:02:00,
2013-09-20 10:44:00,63.0,62.0,-100.00,SW,230,4.0,9.0,97,-99.99,,,-99.99,,2013-09-20 15:44:00,
2013-09-20 10:54:00,63.0,62.0,-100.00,SW,230,4.0,9.0,97,-99.99,,,-99.99,,2013-09-20 15:54:00,
2013-09-20 11:03:00,64.0,55.0,-100.00,NW,305,6.0,14.0,72,-99.99,,,-99.99,,2013-09-20 16:03:00,
2013-09-20 11:04:00,63.0,62.0,-100.00,SW,230,4.0,9.0,97,-99.99,,,-99.99,,2013-09-20 16:04:00,
2013-09-20 11:23:00,64.0,55.0,-100.00,NW,305,6.0,14.0,72,-99.99,,,-99.99,,2013-09-20 16:23:00,
2013-09-20 11:43:00,64.0,55.0,-100.00,NW,305,6.0,14.0,72,-99.99,,,-99.99,,2013-09-20 16:43:00,
2013-09-20 11:53:00,64.0,55.0,-100.00,NW,305,6.0,14.0,72,-99.99,,,-99.99,,2013-09-20 16:53:00,
2013-09-20 13:22:00,69.0,51.0,-100.00,West,275,6.0,14.0,52,-99.99,,,-99.99,,2013-09-20 18:22:00,
2013-09-20 13:32:00,69.0,51.0,-100.00,West,275,6.0,14.0,52,-99.99,,,-99.99,,2013-09-20 18:32:00,
2013-09-20 13:42:00,69.0,51.0,-100.00,West,275,6.0,14.0,52,-99.99,,,-99.99,,2013-09-20 18:42:00,
2013-09-20 13:52:00,69.0,51.0,-100.00,West,275,6.0,14.0,52,-99.99,,,-99.99,,2013-09-20 18:52:00,
2013-09-20 14:02:00,69.0,51.0,-100.00,West,275,6.0,14.0,52,-99.99,,,-99.99,,2013-09-20 19:02:00,
2013-09-20 14:42:00,63.0,56.0,-100.00,NW,315,7.0,19.0,77,-99.99,,,-99.99,,2013-09-20 19:42:00,
2013-09-20 14:53:00,63.0,56.0,-100.00,NW,315,7.0,19.0,77,-99.99,,,-99.99,,2013-09-20 19:53:00,
2013-09-20 15:03:00,63.0,56.0,-100.00,NW,315,7.0,19.0,77,-99.99,,,-99.99,,2013-09-20 20:03:00,
2013-09-20 15:22:00,60.0,58.0,-100.00,NW,325,9.0,15.0,91,-99.99,,,-99.99,,2013-09-20 20:22:00,
2013-09-20 15:32:00,60.0,58.0,-100.00,NW,325,9.0,15.0,91,-99.99,,,-99.99,,2013-09-20 20:32:00,
2013-09-20 15:42:00,60.0,58.0,-100.00,NW,325,9.0,15.0,91,-99.99,,,-99.99,,2013-09-20 20:42:00,
2013-09-20 15:52:00,60.0,58.0,-100.00,NW,325,9.0,15.0,91,-99.99,,,-99.99,,2013-09-20 20:52:00,
2013-09-20 16:02:00,60.0,58.0,-100.00,NW,325,9.0,15.0,91,-99.99,,,-99.99,,2013-09-20 21:02:00,
2013-09-20 16:03:00,58.0,53.0,-100.00,NNW,345,11.0,20.0,86,-99.99,,,-99.99,,2013-09-20 21:03:00,
2013-09-20 16:22:00,58.0,53.0,-100.00,NNW,345,11.0,20.0,86,-99.99,,,-99.99,,2013-09-20 21:22:00,
2013-09-20 16:34:00,58.0,53.0,-100.00,NNW,345,11.0,20.0,86,-99.99,,,-99.99,,2013-09-20 21:34:00,
2013-09-20 16:45:00,58.0,53.0,-100.00,NNW,345,11.0,20.0,86,-99.99,,,-99.99,,2013-09-20 21:45:00,
2013-09-20 16:55:00,58.0,53.0,-100.00,NNW,345,11.0,20.0,86,-99.99,,,-99.99,,2013-09-20 21:55:00,
2013-09-20 17:24:00,57.0,51.0,-100.00,NW,325,10.0,21.0,79,-99.99,,,-99.99,,2013-09-20 22:24:00,
2013-09-20 17:33:00,57.0,51.0,-100.00,NW,325,10.0,21.0,79,-99.99,,,-99.99,,2013-09-20 22:33:00,
2013-09-20 17:44:00,57.0,51.0,-100.00,NW,325,10.0,21.0,79,-99.99,,,-99.99,,2013-09-20 22:44:00,
2013-09-20 17:53:00,57.0,51.0,-100.00,NW,325,10.0,21.0,79,-99.99,,,-99.99,,2013-09-20 22:53:00,
2013-09-20 18:02:00,57.0,51.0,-100.00,NW,325,10.0,21.0,79,-99.99,,,-99.99,,2013-09-20 23:02:00,
2013-09-20 18:23:00,57.0,49.0,-100.00,NW,320,7.0,14.0,75,-99.99,,,-99.99,,2013-09-20 23:23:00,
2013-09-20 18:34:00,57.0,49.0,-100.00,NW,320,7.0,14.0,75,-99.99,,,-99.99,,2013-09-20 23:34:00,
2013-09-20 18:42:00,57.0,49.0,-100.00,NW,320,7.0,14.0,75,-99.99,,,-99.99,,2013-09-20 23:42:00,
2013-09-20 18:53:00,57.0,49.0,-100.00,NW,320,7.0,14.0,75,-99.99,,,-99.99,,2013-09-20 23:53:00,
2013-09-20 19:02:00,57.0,49.0,-100.00,NW,320,7.0,14.0,75,-99.99,,,-99.99,,2013-09-21 00:02:00,
2013-09-20 19:22:00,56.0,49.0,-100.00,NNW,340,8.0,12.0,78,-99.99,,,-99.99,,2013-09-21 00:22:00,
2013-09-20 19:33:00,56.0,49.0,-100.00,NNW,340,8.0,12.0,78,-99.99,,,-99.99,,2013-09-21 00:33:00,
2013-09-20 19:42:00,56.0,49.0,-100.00,NNW,340,8.0,12.0,78,-99.99,,,-99.99,,2013-09-21 00:42:00,
2013-09-20 19:52:00,56.0,49.0,-100.00,NNW,340,8.0,12.0,78,-99.99,,,-99.99,,2013-09-21 00:52:00,
2013-09-20 20:02:00,56.0,49.0,-100.00,NNW,340,8.0,12.0,78,-99.99,,,-99.99,,2013-09-21 01:02:00,
2013-09-20 20:22:00,54.0,48.0,-100.00,NNW,330,8.0,12.0,78,-99.99,,,-99.99,,2013-09-21 01:22:00,
2013-09-20 20:32:00,54.0,48.0,-100.00,NNW,330,8.0,12.0,78,-99.99,,,-99.99,,2013-09-21 01:32:00,
2013-09-20 20:42:00,54.0,48.0,-100.00,NNW,330,8.0,12.0,78,-99.99,,,-99.99,,2013-09-21 01:42:00,
2013-09-20 20:52:00,54.0,48.0,-100.00,NNW,330,8.0,12.0,78,-99.99,,,-99.99,,2013-09-21 01:52:00,
2013-09-20 21:02:00,54.0,48.0,-100.00,NNW,330,8.0,12.0,78,-99.99,,,-99.99,,2013-09-21 02:02:00,
2013-09-20 21:42:00,52.0,47.0,-100.00,NW,310,4.0,9.0,82,-99.99,,,-99.99,,2013-09-21 02:42:00,
2013-09-20 21:52:00,52.0,47.0,-100.00,NW,310,4.0,9.0,82,-99.99,,,-99.99,,2013-09-21 02:52:00,
2013-09-20 22:02:00,52.0,47.0,-100.00,NW,310,4.0,9.0,82,-99.99,,,-99.99,,2013-09-21 03:02:00,
2013-09-20 22:04:00,51.0,46.0,-100.00,NW,305,4.0,9.0,85,-99.99,,,-99.99,,2013-09-21 03:04:00,
2013-09-20 22:22:00,51.0,46.0,-100.00,NW,305,4.0,9.0,85,-99.99,,,-99.99,,2013-09-21 03:22:00,
2013-09-20 22:34:00,51.0,46.0,-100.00,NW,305,4.0,9.0,85,-99.99,,,-99.99,,2013-09-21 03:34:00,
2013-09-20 22:44:00,51.0,46.0,-100.00,NW,305,4.0,9.0,85,-99.99,,,-99.99,,2013-09-21 03:44:00,
2013-09-20 22:55:00,51.0,46.0,-100.00,NW,305,4.0,9.0,85,-99.99,,,-99.99,,2013-09-21 03:55:00,
2013-09-20 23:24:00,49.0,46.0,-100.00,NNW,330,4.0,9.0,88,-99.99,,,-99.99,,2013-09-21 04:24:00,
2013-09-20 23:34:00,49.0,46.0,-100.00,NNW,330,4.0,9.0,88,-99.99,,,-99.99,,2013-09-21 04:34:00,
2013-09-20 23:43:00,49.0,46.0,-100.00,NNW,330,4.0,9.0,88,-99.99,,,-99.99,,2013-09-21 04:43:00,
2013-09-20 23:54:00,49.0,46.0,-100.00,NNW,330,4.0,9.0,88,-99.99,,,-99.99,,2013-09-21 04:54:00,